Terminal Aerodrome Forecast
Issued by NWS Tampa Bay Area, FL

Home | Current Version | Previous Version | Text Only | Print | Product List | Glossary Off
Versions: 1 2 3 4 5 6 7 8 9 10 11 12 13 14 15 16 17 18

000
FTUS42 KTBW 251722
TAFSRQ
TAF
KSRQ 251722Z 2518/2618 28008KT P6SM VCTS SCT035CB BKN150
     FM260100 VRB03KT P6SM FEW100 SCT250
     FM261500 19007KT P6SM SCT025 SCT100=

USA.gov is the U.S. government's official web portal to all federal, state and local government web resources and services.